Time;durP1;ratioP1;P1;durP2;ratioP2;P2;SDS_P1;SDS_P2;PMS_P1;PMS_P2;Temp;Humidity;BMP_temperature;BMP_pressure;BME280_temperature;BME280_humidity;BME280_pressure;Samples;Min_cycle;Max_cycle;Signal;HPM_P1;HPM_P2
2022/03/18 00:00:55;;;;;;;5.35;3.88;;;;;;;;;;5091612;28;20020;-46
2022/03/18 00:03:21;;;;;;;4.93;4.25;;;;;;;;;;5090748;28;20024;-47
2022/03/18 00:05:48;;;;;;;4.05;3.65;;;;;;;;;;5091400;28;20530;-46
2022/03/18 00:08:14;;;;;;;5.45;4.15;;;;;;;;;;5078068;28;20094;-54
2022/03/18 00:10:40;;;;;;;4.90;3.60;;;;;;;;;;5075189;28;20021;-45
2022/03/18 00:13:06;;;;;;;4.47;3.58;;;;;;;;;;5075277;28;20099;-48
2022/03/18 00:15:33;;;;;;;5.72;3.65;;;;;;;;;;5074206;28;20052;-46
2022/03/18 00:17:59;;;;;;;4.72;4.05;;;;;;;;;;5086650;28;20084;-48
2022/03/18 00:20:25;;;;;;;5.47;4.22;;;;;;;;;;5094647;28;20418;-46
2022/03/18 00:22:52;;;;;;;4.70;3.25;;;;;;;;;;5095467;28;20058;-45
2022/03/18 00:25:18;;;;;;;4.32;3.42;;;;;;;;;;5094192;28;20020;-47
2022/03/18 00:27:46;;;;;;;5.45;3.60;;;;;;;;;;5088537;28;20107;-47
2022/03/18 00:30:13;;;;;;;4.05;3.17;;;;;;;;;;5074773;28;20051;-53
2022/03/18 00:32:39;;;;;;;4.18;3.67;;;;;;;;;;5074600;28;20063;-50
2022/03/18 00:35:07;;;;;;;3.75;3.33;;;;;;;;;;5075694;28;20020;-46
2022/03/18 00:37:34;;;;;;;4.72;3.60;;;;;;;;;;5070975;28;20040;-49
2022/03/18 00:40:00;;;;;;;3.97;3.53;;;;;;;;;;5074831;28;20036;-47
2022/03/18 00:42:26;;;;;;;4.00;3.20;;;;;;;;;;5082128;28;20021;-46
2022/03/18 00:44:52;;;;;;;3.90;3.45;;;;;;;;;;5082376;28;20024;-47
2022/03/18 00:52:48;;;;;;;4.72;2.90;;;;;;;;;;5083891;28;20047;-48
2022/03/18 00:55:14;;;;;;;4.25;3.13;;;;;;;;;;5074060;28;20415;-51
2022/03/18 00:57:40;;;;;;;3.30;3.00;;;;;;;;;;5080687;28;20028;-45
2022/03/18 01:00:07;;;;;;;3.28;2.90;;;;;;;;;;5095061;28;20031;-45
2022/03/18 01:02:33;;;;;;;3.70;2.70;;;;;;;;;;5094164;28;20583;-45
2022/03/18 01:04:59;;;;;;;4.65;3.65;;;;;;;;;;5094489;28;20032;-45
2022/03/18 01:07:25;;;;;;;4.00;3.17;;;;;;;;;;5089254;28;20025;-45
2022/03/18 01:09:51;;;;;;;3.97;3.40;;;;;;;;;;5074471;28;20024;-45
2022/03/18 01:12:17;;;;;;;3.90;2.85;;;;;;;;;;5078832;28;20056;-50
2022/03/18 01:14:43;;;;;;;3.85;3.25;;;;;;;;;;5094178;28;20028;-45
2022/03/18 01:17:09;;;;;;;3.58;3.22;;;;;;;;;;5091787;28;20084;-45
2022/03/18 01:19:35;;;;;;;5.32;3.30;;;;;;;;;;5072909;28;20028;-45
2022/03/18 01:22:01;;;;;;;3.67;3.05;;;;;;;;;;5073631;28;20077;-45
2022/03/18 01:24:27;;;;;;;2.85;2.47;;;;;;;;;;5073005;28;20067;-45
2022/03/18 01:26:53;;;;;;;2.90;2.50;;;;;;;;;;5073739;28;20021;-45
2022/03/18 01:29:19;;;;;;;3.03;2.72;;;;;;;;;;5092477;28;20028;-44
2022/03/18 01:31:45;;;;;;;3.30;3.00;;;;;;;;;;5093581;28;20043;-46
2022/03/18 01:34:11;;;;;;;3.95;2.65;;;;;;;;;;5093970;28;20465;-45
2022/03/18 01:36:37;;;;;;;3.33;2.70;;;;;;;;;;5090825;28;20032;-45
2022/03/18 01:39:05;;;;;;;2.60;2.40;;;;;;;;;;5079282;28;20358;-45
2022/03/18 01:41:32;;;;;;;3.45;2.65;;;;;;;;;;5093188;28;20028;-45
2022/03/18 01:43:58;;;;;;;3.13;2.17;;;;;;;;;;5070311;28;20040;-47
2022/03/18 01:46:24;;;;;;;3.80;2.67;;;;;;;;;;5072557;28;20466;-45
2022/03/18 01:48:50;;;;;;;2.75;2.45;;;;;;;;;;5092225;28;20046;-45
2022/03/18 01:51:17;;;;;;;2.63;2.33;;;;;;;;;;5093212;28;20030;-53
2022/03/18 01:53:43;;;;;;;3.13;2.47;;;;;;;;;;5093527;28;20016;-44
2022/03/18 01:56:10;;;;;;;2.50;2.17;;;;;;;;;;5093538;28;20059;-46
2022/03/18 01:58:36;;;;;;;2.70;2.22;;;;;;;;;;5092122;28;20093;-45
2022/03/18 02:01:02;;;;;;;3.70;3.17;;;;;;;;;;5073917;28;20029;-46
2022/03/18 02:03:29;;;;;;;3.40;2.83;;;;;;;;;;5072370;28;20060;-46
2022/03/18 02:05:55;;;;;;;2.72;2.25;;;;;;;;;;5073154;28;20126;-46
2022/03/18 02:08:21;;;;;;;2.63;2.30;;;;;;;;;;5072383;28;20036;-50
2022/03/18 02:10:48;;;;;;;2.47;1.98;;;;;;;;;;5073237;28;20029;-47
2022/03/18 02:13:14;;;;;;;3.03;2.30;;;;;;;;;;5073047;28;20385;-50
2022/03/18 02:15:40;;;;;;;3.17;2.35;;;;;;;;;;5071312;28;20139;-48
2022/03/18 02:18:06;;;;;;;3.45;2.30;;;;;;;;;;5055582;28;20144;-48
2022/03/18 02:20:32;;;;;;;2.47;2.28;;;;;;;;;;5082758;28;20036;-47
2022/03/18 02:22:58;;;;;;;2.55;1.88;;;;;;;;;;5075129;28;20020;-47
2022/03/18 02:25:24;;;;;;;3.38;2.30;;;;;;;;;;5081858;28;20024;-48
2022/03/18 02:27:55;;;;;;;2.00;1.77;;;;;;;;;;5072698;28;20032;-47
2022/03/18 02:30:21;;;;;;;2.45;2.10;;;;;;;;;;5080173;28;20039;-46
2022/03/18 02:32:48;;;;;;;2.30;1.90;;;;;;;;;;5093155;28;20518;-48
2022/03/18 02:35:14;;;;;;;3.08;2.20;;;;;;;;;;5077535;28;20028;-47
2022/03/18 02:37:40;;;;;;;2.85;1.98;;;;;;;;;;5071652;28;20821;-45
2022/03/18 02:40:06;;;;;;;3.80;2.10;;;;;;;;;;5058759;28;20024;-46
2022/03/18 02:42:32;;;;;;;2.92;2.30;;;;;;;;;;5092280;28;20030;-49
2022/03/18 02:45:00;;;;;;;2.38;1.88;;;;;;;;;;5078777;28;20024;-47
2022/03/18 02:47:26;;;;;;;2.38;2.03;;;;;;;;;;5071629;28;20367;-46
2022/03/18 02:49:52;;;;;;;2.45;2.10;;;;;;;;;;5074170;28;20070;-46
2022/03/18 02:52:19;;;;;;;2.13;1.90;;;;;;;;;;5091930;28;20039;-54
2022/03/18 02:54:46;;;;;;;2.97;2.28;;;;;;;;;;5092204;28;20020;-45
2022/03/18 02:57:12;;;;;;;2.00;1.80;;;;;;;;;;5092484;28;20119;-45
2022/03/18 02:59:38;;;;;;;2.28;1.60;;;;;;;;;;5091695;28;20020;-47
2022/03/18 03:02:04;;;;;;;2.70;2.00;;;;;;;;;;5072325;28;20029;-53
2022/03/18 03:04:31;;;;;;;2.75;1.67;;;;;;;;;;5071215;28;20078;-46
2022/03/18 03:09:41;;;;;;;2.78;2.17;;;;;;;;;;5071121;28;20515;-45
2022/03/18 03:12:07;;;;;;;2.13;1.90;;;;;;;;;;5072095;28;20056;-47
2022/03/18 03:14:36;;;;;;;2.58;2.30;;;;;;;;;;5071497;28;20060;-45
2022/03/18 03:17:02;;;;;;;2.90;1.90;;;;;;;;;;5071595;28;20052;-45
2022/03/18 03:19:28;;;;;;;3.00;2.20;;;;;;;;;;5071179;28;20024;-45
2022/03/18 03:21:54;;;;;;;3.40;1.80;;;;;;;;;;5071776;28;20028;-46
2022/03/18 03:24:20;;;;;;;2.38;2.10;;;;;;;;;;5071715;28;20031;-51
2022/03/18 03:26:46;;;;;;;2.42;1.85;;;;;;;;;;5072012;28;20029;-47
2022/03/18 03:29:12;;;;;;;2.35;1.83;;;;;;;;;;5071589;28;20024;-48
2022/03/18 03:31:38;;;;;;;1.70;1.50;;;;;;;;;;5071390;28;20023;-46
2022/03/18 03:34:04;;;;;;;2.00;1.80;;;;;;;;;;5071730;28;20075;-46
2022/03/18 03:36:30;;;;;;;2.30;2.00;;;;;;;;;;5071008;28;20036;-46
2022/03/18 03:38:56;;;;;;;2.20;2.00;;;;;;;;;;5053588;28;20016;-49
2022/03/18 03:41:23;;;;;;;3.75;1.98;;;;;;;;;;5071483;28;20036;-50
2022/03/18 03:43:49;;;;;;;1.98;1.58;;;;;;;;;;5079497;28;20027;-46
2022/03/18 03:46:15;;;;;;;1.75;1.63;;;;;;;;;;5096039;28;20032;-45
2022/03/18 03:48:41;;;;;;;2.13;1.55;;;;;;;;;;5095412;28;20019;-46
2022/03/18 03:51:07;;;;;;;2.47;1.80;;;;;;;;;;5096275;28;20099;-49
2022/03/18 03:53:33;;;;;;;2.55;2.17;;;;;;;;;;5095129;28;20020;-45
2022/03/18 03:55:59;;;;;;;2.47;1.75;;;;;;;;;;5095911;28;20016;-45
2022/03/18 03:58:25;;;;;;;2.10;1.90;;;;;;;;;;5095048;28;20105;-45
2022/03/18 04:00:51;;;;;;;1.98;1.75;;;;;;;;;;5095610;28;20067;-45
2022/03/18 04:03:17;;;;;;;1.73;1.45;;;;;;;;;;5096119;28;20016;-47
2022/03/18 04:05:43;;;;;;;2.13;1.40;;;;;;;;;;5095047;28;20024;-45
2022/03/18 04:08:09;;;;;;;2.03;1.55;;;;;;;;;;5095616;28;20024;-49
2022/03/18 04:10:42;;;;;;;1.88;1.65;;;;;;;;;;5094906;28;20354;-46
2022/03/18 04:13:08;;;;;;;3.20;1.70;;;;;;;;;;5096004;28;20103;-49
2022/03/18 04:15:34;;;;;;;2.05;1.33;;;;;;;;;;5094768;28;20028;-48
2022/03/18 04:18:00;;;;;;;2.17;1.90;;;;;;;;;;5095572;28;20028;-45
2022/03/18 04:20:27;;;;;;;2.58;1.67;;;;;;;;;;5094579;28;20488;-47
2022/03/18 04:22:54;;;;;;;2.00;1.35;;;;;;;;;;5095535;28;20373;-49
2022/03/18 04:25:23;;;;;;;2.38;1.50;;;;;;;;;;5095100;28;20024;-52
2022/03/18 04:27:49;;;;;;;2.40;1.73;;;;;;;;;;5094987;28;20038;-46
2022/03/18 04:30:15;;;;;;;2.15;1.60;;;;;;;;;;5095128;28;20020;-45
2022/03/18 04:32:41;;;;;;;2.05;1.75;;;;;;;;;;5094480;28;20019;-45
2022/03/18 04:35:09;;;;;;;1.95;1.20;;;;;;;;;;5094937;28;20050;-46
2022/03/18 04:37:35;;;;;;;1.75;1.38;;;;;;;;;;5076204;28;20085;-45
2022/03/18 04:40:01;;;;;;;1.58;1.25;;;;;;;;;;5094941;28;20031;-46
2022/03/18 04:42:27;;;;;;;3.30;2.03;;;;;;;;;;5094249;28;20103;-47
2022/03/18 04:44:53;;;;;;;1.50;1.20;;;;;;;;;;5082656;28;20100;-48
2022/03/18 04:47:19;;;;;;;1.92;1.42;;;;;;;;;;5081793;28;20020;-47
2022/03/18 04:49:45;;;;;;;1.90;1.20;;;;;;;;;;5083611;28;20024;-47
2022/03/18 04:52:12;;;;;;;1.95;1.30;;;;;;;;;;5084713;28;20024;-48
2022/03/18 04:54:38;;;;;;;1.83;1.73;;;;;;;;;;5081719;28;20032;-45
2022/03/18 04:57:18;;;;;;;2.45;1.25;;;;;;;;;;5082166;28;20037;-49
2022/03/18 04:59:44;;;;;;;2.15;1.50;;;;;;;;;;5084407;28;20012;-49
2022/03/18 05:02:11;;;;;;;2.53;1.83;;;;;;;;;;5082363;28;20025;-45
2022/03/18 05:04:37;;;;;;;2.10;1.33;;;;;;;;;;5079869;28;20373;-45
2022/03/18 05:07:04;;;;;;;2.70;1.50;;;;;;;;;;5074639;28;20028;-44
2022/03/18 05:09:30;;;;;;;3.00;1.15;;;;;;;;;;5055505;28;20056;-45
2022/03/18 05:11:56;;;;;;;1.60;1.30;;;;;;;;;;5074229;28;20064;-45
2022/03/18 05:14:22;;;;;;;1.60;1.27;;;;;;;;;;5073658;28;20079;-51
2022/03/18 05:16:49;;;;;;;1.55;1.05;;;;;;;;;;5073431;28;20106;-45
2022/03/18 05:19:15;;;;;;;1.92;1.38;;;;;;;;;;5074291;28;20154;-45
2022/03/18 05:21:41;;;;;;;2.70;1.80;;;;;;;;;;5072934;28;20028;-48
2022/03/18 05:24:08;;;;;;;2.47;1.70;;;;;;;;;;5073967;28;20020;-46
2022/03/18 05:26:34;;;;;;;2.33;1.73;;;;;;;;;;5072917;28;20117;-46
2022/03/18 05:29:01;;;;;;;1.80;1.55;;;;;;;;;;5073687;28;20020;-44
2022/03/18 05:31:27;;;;;;;2.03;1.65;;;;;;;;;;5072992;28;20082;-45
2022/03/18 05:33:54;;;;;;;1.85;1.20;;;;;;;;;;5073525;28;20116;-45
2022/03/18 05:36:20;;;;;;;3.53;1.60;;;;;;;;;;5073010;28;20017;-45
2022/03/18 05:38:46;;;;;;;3.72;1.20;;;;;;;;;;5072335;28;20031;-44
2022/03/18 05:41:12;;;;;;;3.90;1.60;;;;;;;;;;5073179;28;20052;-47
2022/03/18 05:43:39;;;;;;;6.10;2.25;;;;;;;;;;5074316;28;20032;-44
2022/03/18 05:46:05;;;;;;;1.63;1.35;;;;;;;;;;5094455;28;20054;-44
2022/03/18 05:48:31;;;;;;;2.60;1.80;;;;;;;;;;5093798;28;20377;-45
2022/03/18 05:50:57;;;;;;;3.70;1.60;;;;;;;;;;5094036;28;20031;-44
2022/03/18 05:53:23;;;;;;;4.45;2.50;;;;;;;;;;5092438;28;20051;-50
2022/03/18 05:58:34;;;;;;;2.85;1.80;;;;;;;;;;5092684;28;20161;-44
2022/03/18 06:01:01;;;;;;;24.65;2.20;;;;;;;;;;5093531;28;20023;-43
2022/03/18 06:03:27;;;;;;;2.38;1.45;;;;;;;;;;5092878;28;20043;-49
2022/03/18 06:05:53;;;;;;;2.40;1.58;;;;;;;;;;5092406;28;20024;-45
2022/03/18 06:13:49;;;;;;;2.38;1.80;;;;;;;;;;5092537;28;20081;-46
2022/03/18 06:16:15;;;;;;;1.77;1.02;;;;;;;;;;5092544;28;20098;-45
2022/03/18 06:18:41;;;;;;;3.80;1.85;;;;;;;;;;5092523;28;20063;-45
2022/03/18 06:21:07;;;;;;;2.60;1.70;;;;;;;;;;5093205;28;20020;-46
2022/03/18 06:23:34;;;;;;;5.40;1.65;;;;;;;;;;5092283;28;20433;-51
2022/03/18 06:26:01;;;;;;;2.17;1.55;;;;;;;;;;5093015;28;20132;-46
2022/03/18 06:28:27;;;;;;;1.90;1.10;;;;;;;;;;5092456;28;20032;-53
2022/03/18 06:30:53;;;;;;;2.75;1.88;;;;;;;;;;5093003;28;20045;-44
2022/03/18 06:33:19;;;;;;;2.08;1.67;;;;;;;;;;5092740;28;20131;-44
2022/03/18 06:35:45;;;;;;;2.20;1.55;;;;;;;;;;5091993;28;20098;-46
2022/03/18 06:38:11;;;;;;;3.15;1.60;;;;;;;;;;5092700;28;20039;-43
2022/03/18 06:40:37;;;;;;;5.03;1.48;;;;;;;;;;5092043;28;20025;-46
2022/03/18 06:43:03;;;;;;;3.00;1.60;;;;;;;;;;5092405;28;20120;-45
2022/03/18 06:45:30;;;;;;;3.05;1.75;;;;;;;;;;5073781;28;20027;-46
2022/03/18 06:47:56;;;;;;;2.38;1.42;;;;;;;;;;5072033;28;20028;-45
2022/03/18 06:50:24;;;;;;;3.67;1.50;;;;;;;;;;5072707;28;20032;-47
2022/03/18 06:52:50;;;;;;;5.15;1.88;;;;;;;;;;5053658;28;20496;-51
2022/03/18 06:55:17;;;;;;;6.68;2.33;;;;;;;;;;5072364;28;20024;-46
2022/03/18 06:57:43;;;;;;;3.05;1.77;;;;;;;;;;5070865;28;20056;-47
2022/03/18 07:00:10;;;;;;;5.65;1.63;;;;;;;;;;5071727;28;20198;-46
2022/03/18 07:02:37;;;;;;;4.32;1.73;;;;;;;;;;5078862;28;20458;-44
2022/03/18 07:05:04;;;;;;;4.97;2.22;;;;;;;;;;5093566;28;20028;-48
2022/03/18 07:07:30;;;;;;;3.97;1.98;;;;;;;;;;5079606;28;20055;-45
2022/03/18 07:09:56;;;;;;;3.85;1.70;;;;;;;;;;5073615;28;20025;-47
2022/03/18 07:12:22;;;;;;;3.78;2.20;;;;;;;;;;5072305;28;20569;-46
2022/03/18 07:14:48;;;;;;;6.57;1.85;;;;;;;;;;5079116;28;20058;-46
2022/03/18 07:19:59;;;;;;;4.43;2.03;;;;;;;;;;5092129;28;20048;-46
2022/03/18 07:22:25;;;;;;;5.70;2.17;;;;;;;;;;5091772;28;20023;-45
2022/03/18 07:24:51;;;;;;;9.13;2.47;;;;;;;;;;5091516;28;20107;-46
2022/03/18 07:27:17;;;;;;;3.92;1.77;;;;;;;;;;5092003;28;20056;-45
2022/03/18 07:29:43;;;;;;;4.63;2.45;;;;;;;;;;5091063;28;20372;-46
2022/03/18 07:32:09;;;;;;;3.53;2.25;;;;;;;;;;5091933;28;20055;-44
2022/03/18 07:34:35;;;;;;;5.00;2.05;;;;;;;;;;5091215;28;20056;-45
2022/03/18 07:37:01;;;;;;;5.55;2.13;;;;;;;;;;5091707;28;20366;-47
2022/03/18 07:39:27;;;;;;;3.10;1.95;;;;;;;;;;5091140;28;20103;-52
2022/03/18 07:41:53;;;;;;;5.18;2.13;;;;;;;;;;5088217;28;20032;-44
2022/03/18 07:44:19;;;;;;;4.47;2.15;;;;;;;;;;5083463;28;20025;-47
2022/03/18 07:46:45;;;;;;;6.28;2.58;;;;;;;;;;5070866;28;20032;-49
2022/03/18 07:49:11;;;;;;;5.57;2.53;;;;;;;;;;5070867;28;20470;-48
2022/03/18 07:51:37;;;;;;;4.63;2.88;;;;;;;;;;5070511;28;20150;-45
2022/03/18 07:54:03;;;;;;;5.20;2.97;;;;;;;;;;5071064;28;20020;-49
2022/03/18 07:56:30;;;;;;;4.57;2.53;;;;;;;;;;5069896;28;20031;-51
2022/03/18 07:58:56;;;;;;;4.28;2.63;;;;;;;;;;5070675;28;20028;-49
2022/03/18 08:01:23;;;;;;;4.65;2.50;;;;;;;;;;5073565;28;20023;-46
2022/03/18 08:03:49;;;;;;;4.47;2.63;;;;;;;;;;5090399;28;20610;-48
2022/03/18 08:06:15;;;;;;;3.22;2.42;;;;;;;;;;5087626;28;20024;-48
2022/03/18 08:08:41;;;;;;;3.63;2.42;;;;;;;;;;5090322;28;20027;-45
2022/03/18 08:11:07;;;;;;;5.93;2.75;;;;;;;;;;5091547;28;20050;-44
2022/03/18 08:13:34;;;;;;;4.75;2.80;;;;;;;;;;5090248;28;20479;-45
2022/03/18 08:16:00;;;;;;;3.60;2.50;;;;;;;;;;5090974;28;20056;-44
2022/03/18 08:18:26;;;;;;;4.20;2.85;;;;;;;;;;5091334;28;20077;-46
2022/03/18 08:20:52;;;;;;;5.15;3.35;;;;;;;;;;5090488;28;20024;-44
2022/03/18 08:23:18;;;;;;;3.72;2.15;;;;;;;;;;5091363;28;20031;-46
2022/03/18 08:25:44;;;;;;;5.72;2.70;;;;;;;;;;5090636;28;20070;-44
2022/03/18 08:28:11;;;;;;;5.45;3.10;;;;;;;;;;5091407;28;20028;-44
2022/03/18 08:30:39;;;;;;;5.45;3.38;;;;;;;;;;5094194;28;20077;-44
2022/03/18 08:33:06;;;;;;;3.47;2.67;;;;;;;;;;5094856;28;20465;-47
2022/03/18 08:35:32;;;;;;;5.43;2.72;;;;;;;;;;5094463;28;20020;-51
2022/03/18 08:37:58;;;;;;;4.93;3.15;;;;;;;;;;5094414;28;20024;-47
2022/03/18 08:40:28;;;;;;;4.18;3.30;;;;;;;;;;5094959;28;20484;-44
2022/03/18 08:42:55;;;;;;;5.05;3.10;;;;;;;;;;5094094;28;20487;-46
2022/03/18 08:45:22;;;;;;;5.25;3.55;;;;;;;;;;5078231;28;20374;-46
2022/03/18 08:47:48;;;;;;;3.83;2.78;;;;;;;;;;5073761;28;20389;-50
2022/03/18 08:50:14;;;;;;;5.88;3.17;;;;;;;;;;5074649;28;20091;-45
2022/03/18 08:52:40;;;;;;;4.65;3.10;;;;;;;;;;5073781;28;20024;-44
2022/03/18 08:55:07;;;;;;;5.03;3.25;;;;;;;;;;5074528;28;20025;-44
2022/03/18 08:57:36;;;;;;;4.88;3.38;;;;;;;;;;5073901;28;20028;-50
2022/03/18 09:00:05;;;;;;;5.65;3.13;;;;;;;;;;5074249;28;20021;-44
2022/03/18 09:02:31;;;;;;;4.15;2.63;;;;;;;;;;5086873;28;20028;-51
2022/03/18 09:04:57;;;;;;;4.35;3.13;;;;;;;;;;5094002;28;20024;-44
2022/03/18 09:07:23;;;;;;;6.38;3.20;;;;;;;;;;5094656;28;20024;-44
2022/03/18 09:09:49;;;;;;;6.22;3.90;;;;;;;;;;5093733;28;20020;-44
2022/03/18 09:12:18;;;;;;;3.72;2.80;;;;;;;;;;5094555;28;20020;-44
2022/03/18 09:14:44;;;;;;;3.97;2.97;;;;;;;;;;5093508;28;20031;-45
2022/03/18 09:17:10;;;;;;;3.88;2.78;;;;;;;;;;5094174;28;20485;-45
2022/03/18 09:19:37;;;;;;;4.30;2.95;;;;;;;;;;5093634;28;20454;-44
2022/03/18 09:22:05;;;;;;;6.28;3.30;;;;;;;;;;5094070;28;20591;-44
2022/03/18 09:24:31;;;;;;;3.45;2.63;;;;;;;;;;5093887;28;20507;-50
2022/03/18 09:26:57;;;;;;;5.88;3.03;;;;;;;;;;5093652;28;20020;-44
2022/03/18 09:29:25;;;;;;;3.92;2.83;;;;;;;;;;5093922;28;20019;-44
2022/03/18 09:31:51;;;;;;;6.95;3.15;;;;;;;;;;5092781;28;20414;-44
2022/03/18 09:34:17;;;;;;;3.42;2.88;;;;;;;;;;5093614;28;20028;-44
2022/03/18 09:36:44;;;;;;;5.78;3.28;;;;;;;;;;5092835;28;20024;-44
2022/03/18 09:39:10;;;;;;;4.32;2.85;;;;;;;;;;5075646;28;20016;-44
2022/03/18 09:41:36;;;;;;;4.43;2.95;;;;;;;;;;5093161;28;20020;-46
2022/03/18 09:44:02;;;;;;;4.45;2.90;;;;;;;;;;5088228;28;20358;-45
2022/03/18 09:46:28;;;;;;;4.80;3.15;;;;;;;;;;5073241;28;20543;-45
2022/03/18 09:48:54;;;;;;;4.45;2.95;;;;;;;;;;5072885;28;20036;-44
2022/03/18 09:51:21;;;;;;;3.97;3.17;;;;;;;;;;5073224;28;20509;-44
2022/03/18 09:53:47;;;;;;;4.90;3.35;;;;;;;;;;5072963;28;20115;-44
2022/03/18 09:56:13;;;;;;;6.18;3.10;;;;;;;;;;5073280;28;20025;-44
2022/03/18 09:58:39;;;;;;;3.42;3.05;;;;;;;;;;5072383;28;20029;-44
2022/03/18 10:01:05;;;;;;;5.10;3.15;;;;;;;;;;5073760;28;20020;-45
2022/03/18 10:03:41;;;;;;;6.10;3.35;;;;;;;;;;5093520;28;20039;-44
2022/03/18 10:06:07;;;;;;;4.70;2.97;;;;;;;;;;5093043;28;20024;-44
2022/03/18 10:08:39;;;;;;;5.07;3.50;;;;;;;;;;5091443;28;20038;-47
2022/03/18 10:11:20;;;;;;;3.78;2.63;;;;;;;;;;5093300;28;20031;-44
2022/03/18 10:13:53;;;;;;;4.45;2.83;;;;;;;;;;5092447;28;20024;-44
2022/03/18 10:16:38;;;;;;;4.20;3.38;;;;;;;;;;5093068;28;20123;-44
2022/03/18 10:19:06;;;;;;;5.05;2.88;;;;;;;;;;5093328;28;20032;-45
2022/03/18 10:21:33;;;;;;;4.65;3.28;;;;;;;;;;5093051;28;20097;-47
2022/03/18 10:24:03;;;;;;;6.10;3.65;;;;;;;;;;5092720;28;20024;-48
2022/03/18 10:26:30;;;;;;;3.95;3.17;;;;;;;;;;5092763;28;20025;-49
2022/03/18 10:29:00;;;;;;;4.38;3.08;;;;;;;;;;5092270;28;20023;-44
2022/03/18 10:31:26;;;;;;;3.95;2.95;;;;;;;;;;5092568;28;20035;-48
2022/03/18 10:37:04;;;;;;;4.90;3.03;;;;;;;;;;5082941;28;20401;-45
2022/03/18 10:39:30;;;;;;;5.75;3.38;;;;;;;;;;5072593;28;20462;-44
2022/03/18 10:41:58;;;;;;;5.13;3.92;;;;;;;;;;5071687;28;20035;-45
2022/03/18 10:44:24;;;;;;;5.03;3.42;;;;;;;;;;5072496;28;20355;-48
2022/03/18 10:46:53;;;;;;;6.28;3.75;;;;;;;;;;5071368;28;20036;-47
2022/03/18 10:49:23;;;;;;;5.22;3.50;;;;;;;;;;5072182;28;20508;-44
2022/03/18 10:51:49;;;;;;;4.68;3.25;;;;;;;;;;5070807;28;20035;-49
2022/03/18 10:54:23;;;;;;;5.30;3.92;;;;;;;;;;5071958;28;20462;-49
2022/03/18 10:56:52;;;;;;;5.50;3.75;;;;;;;;;;5070978;28;20493;-45
2022/03/18 10:59:18;;;;;;;5.97;3.65;;;;;;;;;;5071398;28;20032;-48
2022/03/18 11:01:48;;;;;;;4.80;3.13;;;;;;;;;;5077269;28;20024;-49
2022/03/18 11:04:15;;;;;;;4.45;3.40;;;;;;;;;;5092123;28;20106;-46
2022/03/18 11:07:29;;;;;;;5.50;3.45;;;;;;;;;;5090930;28;20059;-46
2022/03/18 11:11:07;;;;;;;4.20;3.22;;;;;;;;;;5091904;28;20078;-47
2022/03/18 11:12:25;;;;;;;6.10;3.80;;;;;;;;;;5091680;28;20071;-47
2022/03/18 11:14:57;;;;;;;8.32;4.25;;;;;;;;;;5091614;28;20043;-46
2022/03/18 11:17:24;;;;;;;5.30;3.50;;;;;;;;;;5091727;28;20052;-46
2022/03/18 11:19:51;;;;;;;5.10;3.85;;;;;;;;;;5091358;28;20027;-45
2022/03/18 11:22:18;;;;;;;5.18;3.92;;;;;;;;;;5091981;28;20115;-45
2022/03/18 11:24:46;;;;;;;5.47;3.47;;;;;;;;;;5091240;28;20020;-44
2022/03/18 11:27:12;;;;;;;6.72;3.40;;;;;;;;;;5092425;28;20468;-46
2022/03/18 11:29:38;;;;;;;7.10;3.80;;;;;;;;;;5091517;28;20476;-51
2022/03/18 11:32:14;;;;;;;5.70;3.85;;;;;;;;;;5091421;28;20077;-48
2022/03/18 11:34:46;;;;;;;5.13;3.53;;;;;;;;;;5090989;28;20019;-48
2022/03/18 11:37:13;;;;;;;5.95;4.05;;;;;;;;;;5091789;28;20038;-46
2022/03/18 11:39:39;;;;;;;6.32;3.70;;;;;;;;;;5091343;28;20050;-51
2022/03/18 11:42:08;;;;;;;5.93;3.92;;;;;;;;;;5091629;28;20020;-44
2022/03/18 11:44:39;;;;;;;4.93;3.40;;;;;;;;;;5081908;28;20029;-45
2022/03/18 11:47:20;;;;;;;6.47;3.83;;;;;;;;;;5071569;28;20120;-45
2022/03/18 11:49:46;;;;;;;4.95;3.63;;;;;;;;;;5070654;28;20023;-45
2022/03/18 11:52:12;;;;;;;5.43;4.00;;;;;;;;;;5053540;28;20488;-44
2022/03/18 11:54:52;;;;;;;5.38;3.90;;;;;;;;;;5052978;28;20021;-52
2022/03/18 11:57:28;;;;;;;5.25;3.72;;;;;;;;;;5070867;28;20427;-49
2022/03/18 11:59:55;;;;;;;5.15;4.03;;;;;;;;;;5070504;28;20013;-47
2022/03/18 12:02:31;;;;;;;7.78;4.03;;;;;;;;;;5082356;28;20028;-47
2022/03/18 12:04:58;;;;;;;7.88;4.20;;;;;;;;;;5093839;28;20020;-45
2022/03/18 12:07:27;;;;;;;5.45;3.90;;;;;;;;;;5095266;28;20021;-45
2022/03/18 12:09:53;;;;;;;6.18;3.65;;;;;;;;;;5094885;28;20021;-45
2022/03/18 12:12:24;;;;;;;6.07;3.75;;;;;;;;;;5095350;28;20022;-45
2022/03/18 12:14:51;;;;;;;6.60;3.80;;;;;;;;;;5088833;28;20032;-45
2022/03/18 12:17:17;;;;;;;7.97;3.97;;;;;;;;;;5082309;28;20480;-51
2022/03/18 12:19:50;;;;;;;6.78;4.10;;;;;;;;;;5083944;28;20099;-46
2022/03/18 12:22:16;;;;;;;4.95;3.17;;;;;;;;;;5084679;28;20017;-44
2022/03/18 12:24:43;;;;;;;7.25;4.10;;;;;;;;;;5083281;28;20031;-49
2022/03/18 12:27:09;;;;;;;6.53;3.92;;;;;;;;;;5085261;28;20035;-45
2022/03/18 12:29:35;;;;;;;8.00;3.90;;;;;;;;;;5084814;28;20051;-45
2022/03/18 12:32:05;;;;;;;6.78;4.78;;;;;;;;;;5082403;28;20107;-47
2022/03/18 12:34:31;;;;;;;7.03;4.05;;;;;;;;;;5092266;28;20404;-48
2022/03/18 12:36:57;;;;;;;7.50;4.60;;;;;;;;;;5087433;28;20040;-49
2022/03/18 12:39:26;;;;;;;8.30;4.20;;;;;;;;;;5082298;28;20039;-48
2022/03/18 12:42:04;;;;;;;7.18;3.80;;;;;;;;;;5091326;28;20027;-48
2022/03/18 12:44:31;;;;;;;5.13;3.58;;;;;;;;;;5085770;28;20111;-45
2022/03/18 12:46:57;;;;;;;6.97;4.25;;;;;;;;;;5073579;28;20170;-45
2022/03/18 12:49:35;;;;;;;6.32;4.00;;;;;;;;;;5077101;28;20032;-44
2022/03/18 12:52:01;;;;;;;8.95;4.63;;;;;;;;;;5073252;28;20587;-45
2022/03/18 12:54:28;;;;;;;5.20;3.47;;;;;;;;;;5073869;28;20025;-44
2022/03/18 12:56:54;;;;;;;6.63;4.43;;;;;;;;;;5073638;28;20035;-45
2022/03/18 12:59:21;;;;;;;7.25;4.90;;;;;;;;;;5073984;28;20381;-44
2022/03/18 13:01:51;;;;;;;8.15;4.43;;;;;;;;;;5073279;28;20035;-47
2022/03/18 13:04:19;;;;;;;6.72;3.95;;;;;;;;;;5074307;28;20020;-46
2022/03/18 13:06:46;;;;;;;8.73;4.25;;;;;;;;;;5080735;28;20020;-46
2022/03/18 13:09:16;;;;;;;6.07;4.28;;;;;;;;;;5094423;28;20028;-45
2022/03/18 13:11:43;;;;;;;4.85;3.92;;;;;;;;;;5093989;28;20016;-52
2022/03/18 13:14:10;;;;;;;7.45;3.85;;;;;;;;;;5093908;28;20034;-44
2022/03/18 13:16:40;;;;;;;4.38;3.65;;;;;;;;;;5094018;28;20081;-44
2022/03/18 13:19:07;;;;;;;7.25;4.45;;;;;;;;;;5094234;28;20052;-44
2022/03/18 13:21:40;;;;;;;5.25;3.30;;;;;;;;;;5094334;28;20024;-44
2022/03/18 13:24:07;;;;;;;7.30;4.47;;;;;;;;;;5093539;28;20461;-44
2022/03/18 13:26:33;;;;;;;6.70;3.80;;;;;;;;;;5094165;28;20030;-44
2022/03/18 13:28:59;;;;;;;5.18;4.05;;;;;;;;;;5093413;28;20786;-44
2022/03/18 13:34:10;;;;;;;6.15;3.28;;;;;;;;;;5094186;28;20027;-45
2022/03/18 13:36:39;;;;;;;5.32;4.10;;;;;;;;;;5093609;28;20020;-45
2022/03/18 13:39:07;;;;;;;6.22;4.63;;;;;;;;;;5093013;28;20024;-45
2022/03/18 13:42:05;;;;;;;5.35;3.47;;;;;;;;;;5093930;28;20103;-45
2022/03/18 13:44:44;;;;;;;6.65;4.45;;;;;;;;;;5049811;28;20036;-44
2022/03/18 13:47:10;;;;;;;6.05;4.30;;;;;;;;;;5073538;28;20496;-44
2022/03/18 13:49:36;;;;;;;6.43;4.00;;;;;;;;;;5072972;28;20032;-47
2022/03/18 13:52:03;;;;;;;6.60;4.03;;;;;;;;;;5072545;28;20085;-44
2022/03/18 13:54:29;;;;;;;6.03;4.70;;;;;;;;;;5073306;28;20450;-47
2022/03/18 13:56:59;;;;;;;6.47;4.05;;;;;;;;;;5072206;28;20028;-48
2022/03/18 13:59:25;;;;;;;5.85;3.72;;;;;;;;;;5073165;28;20036;-44
2022/03/18 14:02:02;;;;;;;6.45;3.60;;;;;;;;;;5078823;28;20023;-50
2022/03/18 14:04:38;;;;;;;6.47;4.05;;;;;;;;;;5093119;28;20023;-47
2022/03/18 14:07:05;;;;;;;6.13;3.80;;;;;;;;;;5092043;28;20058;-48
2022/03/18 14:09:31;;;;;;;5.68;3.75;;;;;;;;;;5093285;28;20052;-46
2022/03/18 14:12:10;;;;;;;5.85;3.92;;;;;;;;;;5092407;28;20078;-45
2022/03/18 14:14:37;;;;;;;5.70;3.90;;;;;;;;;;5093098;28;20028;-46
2022/03/18 14:17:10;;;;;;;5.90;3.92;;;;;;;;;;5092158;28;20052;-46
2022/03/18 14:19:46;;;;;;;6.07;3.83;;;;;;;;;;5093212;28;20093;-45
2022/03/18 14:22:30;;;;;;;9.65;5.35;;;;;;;;;;5093020;28;20020;-47
2022/03/18 14:24:56;;;;;;;5.60;3.92;;;;;;;;;;5092285;28;20031;-45
2022/03/18 14:27:23;;;;;;;5.72;3.90;;;;;;;;;;5092500;28;20078;-45
2022/03/18 14:29:49;;;;;;;4.10;3.60;;;;;;;;;;5092275;28;20020;-44
2022/03/18 14:32:15;;;;;;;5.70;4.18;;;;;;;;;;5082389;28;20036;-46
2022/03/18 14:34:41;;;;;;;5.00;4.18;;;;;;;;;;5072266;28;20032;-49
2022/03/18 14:37:07;;;;;;;5.63;4.35;;;;;;;;;;5082360;28;20036;-45
2022/03/18 14:39:33;;;;;;;7.32;4.18;;;;;;;;;;5092790;28;20437;-48
2022/03/18 14:41:59;;;;;;;5.43;3.83;;;;;;;;;;5091817;28;20554;-46
2022/03/18 14:44:25;;;;;;;6.40;3.85;;;;;;;;;;5066256;28;20029;-45
2022/03/18 14:46:51;;;;;;;7.18;4.00;;;;;;;;;;5071726;28;20107;-45
2022/03/18 14:49:19;;;;;;;6.25;3.97;;;;;;;;;;5072455;28;20021;-46
2022/03/18 14:51:45;;;;;;;5.55;3.97;;;;;;;;;;5072053;28;20013;-53
2022/03/18 14:54:13;;;;;;;7.68;3.83;;;;;;;;;;5071625;28;20377;-48
2022/03/18 14:56:39;;;;;;;4.60;3.67;;;;;;;;;;5072144;28;20024;-47
2022/03/18 14:59:05;;;;;;;4.60;3.72;;;;;;;;;;5071069;28;20020;-47
2022/03/18 15:01:31;;;;;;;7.32;4.20;;;;;;;;;;5072106;28;20432;-47
2022/03/18 15:04:05;;;;;;;6.05;4.47;;;;;;;;;;5071579;28;20024;-49
2022/03/18 15:06:31;;;;;;;4.45;3.47;;;;;;;;;;5077737;28;20441;-46
2022/03/18 15:08:57;;;;;;;5.20;4.10;;;;;;;;;;5091300;28;20032;-46